Turkum — YMA2451 — position and weather

sailwx.info

Track history (hours):
 
Tides and Currents Weather Stations Pressure Air Temp Water Temp Dewpoint Dewpoint Depression Visibility Wind Speed Wind Dir Waves Ship Positions

Turkum

Last reported at 2017-Aug-27 16:54 UTC. Time now 2017-Nov-24 15:16 UTC.
Position N 36°50' E 030°36'.
Warning: this ship's position is months out of date.

Length 14 m.

Type: Pleasure craft. MMSI: 271043685.

Date/timePositionNaut miles runAvg speedWind from/ knotsBaromVisibWave heightAir tempDewpointWater temp
2017-Aug-27 16:54N 36°50' E 030°36'0 0.0
2017-Aug-27 16:27N 36°50' E 030°36'0 0.0
2017-Aug-27 16:00N 36°50' E 030°36'0 0.0
2017-Aug-27 15:30N 36°50' E 030°36'1 1.0
2017-Aug-27 15:00N 36°50' E 030°37'1 2.3
2017-Aug-27 14:30N 36°49' E 030°35'0 0.0
2017-Aug-27 14:00N 36°49' E 030°35'0 0.0
2017-Aug-27 13:30N 36°49' E 030°35'0 0.0
2017-Aug-27 13:00N 36°49' E 030°35'0 0.0
2017-Aug-27 12:30N 36°49' E 030°35'0 0.0
2017-Aug-27 12:00N 36°49' E 030°35'0 0.0
2017-Aug-27 11:30N 36°49' E 030°35'0 0.0
2017-Aug-27 11:00N 36°49' E 030°35'2 3.1
2017-Aug-27 10:30N 36°49' E 030°37'3 6.2
2017-Aug-27 10:00N 36°51' E 030°41'4 7.7
2017-Aug-27 09:30N 36°51' E 030°46'1 1.3
2017-Aug-27 09:00N 36°50' E 030°45'3 6.2
2017-Aug-27 08:30N 36°51' E 030°41'3 5.8
2017-Aug-27 08:00N 36°51' E 030°37'1 1.8
2017-Aug-27 07:28N 36°50' E 030°36'0 0.0
2017-Aug-27 06:58N 36°50' E 030°36'0 0.0
2017-Aug-27 06:28N 36°50' E 030°36'0 0.0
2017-Aug-27 05:58N 36°50' E 030°36'0 0.0
2017-Aug-27 05:30N 36°50' E 030°36'0 0.0
2017-Aug-27 05:00N 36°50' E 030°36'0 0.0
2017-Aug-27 04:30N 36°50' E 030°36'0 0.0
2017-Aug-27 04:00N 36°50' E 030°36'0 0.0
2017-Aug-27 03:30N 36°50' E 030°36'0 0.0
2017-Aug-27 03:00N 36°50' E 030°36'0 0.0
2017-Aug-27 02:30N 36°50' E 030°36'0 0.0
2017-Aug-27 02:00N 36°50' E 030°36'0 0.0
2017-Aug-27 01:30N 36°50' E 030°36'0 0.0
2017-Aug-27 01:00N 36°50' E 030°36'0 0.0
2017-Aug-27 00:30N 36°50' E 030°36'0 0.0
2017-Aug-27 00:00N 36°50' E 030°36'0 0.0
2017-Aug-26 23:30N 36°50' E 030°36'0 0.0
2017-Aug-26 23:00N 36°50' E 030°36'0 0.0
2017-Aug-26 22:30N 36°50' E 030°36'0 0.0
2017-Aug-26 22:00N 36°50' E 030°36'0 0.0
2017-Aug-26 21:30N 36°50' E 030°36'0 0.0
2017-Aug-26 21:00N 36°50' E 030°36'0 0.0
2017-Aug-26 20:30N 36°50' E 030°36'0 0.0
2017-Aug-26 20:00N 36°50' E 030°36'0 0.0
2017-Aug-26 19:30N 36°50' E 030°36'0 0.0
2017-Aug-26 19:00N 36°50' E 030°36'0 0.0
2017-Aug-26 18:30N 36°50' E 030°36'0 0.0
2017-Aug-26 18:00N 36°50' E 030°36'0 0.0
2017-Aug-26 17:30N 36°50' E 030°36'0 0.0
2017-Aug-26 17:00N 36°50' E 030°36'0 0.0
2017-Aug-26 16:30N 36°50' E 030°36'0 0.0
2017-Aug-26 16:00N 36°50' E 030°36'0 0.0
2017-Aug-26 15:30N 36°50' E 030°36'0 0.0
2017-Aug-26 15:00N 36°50' E 030°36'0 0.0
2017-Aug-26 14:00N 36°50' E 030°36'0 0.0
2017-Aug-26 13:30N 36°50' E 030°36'0 0.0
2017-Aug-26 12:57N 36°50' E 030°36'0 0.0
2017-Aug-26 12:30N 36°50' E 030°36'0 0.0
2017-Aug-26 12:00N 36°50' E 030°36'0 0.0
2017-Aug-26 11:30N 36°50' E 030°36'0 0.0
2017-Aug-26 11:00N 36°50' E 030°36'0 0.0
2017-Aug-26 10:30N 36°50' E 030°36'0 0.0
2017-Aug-26 10:00N 36°50' E 030°36'0 0.0
2017-Aug-26 09:30N 36°50' E 030°36'0 0.0
2017-Aug-26 08:57N 36°50' E 030°36'0 0.0
2017-Aug-26 08:30N 36°50' E 030°36'0 0.0
2017-Aug-26 07:57N 36°50' E 030°36'0 0.0
2017-Aug-26 07:30N 36°50' E 030°36'0 0.0
2017-Aug-26 07:00N 36°50' E 030°36'0 0.0
2017-Aug-26 06:30N 36°50' E 030°36'0 0.0
2017-Aug-26 06:00N 36°50' E 030°36'0 0.0
2017-Aug-26 05:27N 36°50' E 030°36'0 0.0
2017-Aug-26 04:57N 36°50' E 030°36'0 0.0
2017-Aug-26 04:27N 36°50' E 030°36'0 0.0
2017-Aug-26 03:57N 36°50' E 030°36'0 0.0
2017-Aug-26 03:27N 36°50' E 030°36'0 0.0
2017-Aug-26 03:00N 36°50' E 030°36'0 0.0
2017-Aug-26 02:27N 36°50' E 030°36'0 0.0
2017-Aug-26 02:00N 36°50' E 030°36'0 0.0
2017-Aug-26 01:30N 36°50' E 030°36'0 0.0
2017-Aug-26 01:00N 36°50' E 030°36'0 0.0
2017-Aug-26 00:30N 36°50' E 030°36'0 0.0
2017-Aug-25 23:57N 36°50' E 030°36'0 0.0
2017-Aug-25 23:30N 36°50' E 030°36'0 0.0
2017-Aug-25 23:00N 36°50' E 030°36'0 0.0
2017-Aug-25 22:30N 36°50' E 030°36'0 0.0
2017-Aug-25 22:00N 36°50' E 030°36'0 0.0
2017-Aug-25 21:30N 36°50' E 030°36'0 0.0
2017-Aug-25 21:00N 36°50' E 030°36'0 0.0
2017-Aug-25 20:30N 36°50' E 030°36'0 0.0
2017-Aug-25 20:00N 36°50' E 030°36'0 0.0
2017-Aug-25 19:30N 36°50' E 030°36'0 0.0
2017-Aug-25 19:00N 36°50' E 030°36'0 0.0
2017-Aug-25 18:30N 36°50' E 030°36'0 0.0
2017-Aug-25 17:54N 36°50' E 030°36'0 0.0
2017-Aug-25 17:30N 36°50' E 030°36'0 0.0
2017-Aug-25 17:00N 36°50' E 030°36'0 0.0
2017-Aug-25 16:30N 36°50' E 030°36'0 0.0
2017-Aug-25 16:00N 36°50' E 030°36'0 0.0
2017-Aug-25 15:30N 36°50' E 030°36'0 0.0
2017-Aug-25 14:57N 36°50' E 030°36'0 0.0
2017-Aug-25 14:30N 36°50' E 030°36'0 0.0
2017-Aug-25 13:30N 36°50' E 030°36'0 0.0
2017-Aug-25 12:57N 36°50' E 030°36'0 0.0
2017-Aug-25 12:30N 36°50' E 030°36'0 0.0
2017-Aug-25 12:00N 36°50' E 030°36'0 0.0
2017-Aug-25 11:27N 36°50' E 030°36'0 0.0
2017-Aug-25 11:00N 36°50' E 030°36'0 0.0
2017-Aug-25 10:30N 36°50' E 030°36'0 0.0
2017-Aug-25 10:00N 36°50' E 030°36'0 0.0
2017-Aug-25 09:30N 36°50' E 030°36'0 0.0
2017-Aug-25 09:00N 36°50' E 030°36'0 0.0
2017-Aug-25 08:30N 36°50' E 030°36'0 0.0
2017-Aug-25 08:00N 36°50' E 030°36'0 0.0
2017-Aug-25 07:30N 36°50' E 030°36'0 0.0
2017-Aug-25 07:00N 36°50' E 030°36'0 0.0
2017-Aug-25 06:30N 36°50' E 030°36'0 0.0
2017-Aug-25 06:00N 36°50' E 030°36'0 0.0
2017-Aug-25 05:30N 36°50' E 030°36'0 0.0
2017-Aug-25 05:00N 36°50' E 030°36'0 0.0
2017-Aug-25 04:30N 36°50' E 030°36'0 0.0
2017-Aug-25 03:57N 36°50' E 030°36'0 0.0
2017-Aug-25 03:30N 36°50' E 030°36'0 0.0
2017-Aug-25 02:57N 36°50' E 030°36'0 0.0
2017-Aug-25 02:27N 36°50' E 030°36'0 0.0
2017-Aug-25 01:57N 36°50' E 030°36'0 0.0
2017-Aug-25 01:24N 36°50' E 030°36'0 0.0
2017-Aug-25 01:00N 36°50' E 030°36'0 0.0
2017-Aug-25 00:30N 36°50' E 030°36'0 0.0
2017-Aug-24 23:51N 36°50' E 030°36'0 0.0
2017-Aug-24 23:30N 36°50' E 030°36'0 0.0
2017-Aug-24 23:00N 36°50' E 030°36'0 0.0
2017-Aug-24 22:30N 36°50' E 030°36'0 0.0
2017-Aug-24 21:57N 36°50' E 030°36'0 0.0
2017-Aug-24 21:24N 36°50' E 030°36'0 0.0
2017-Aug-24 21:00N 36°50' E 030°36'0 0.0
2017-Aug-24 20:30N 36°50' E 030°36'0 0.0
2017-Aug-24 20:00N 36°50' E 030°36'0 0.0
2017-Aug-24 19:30N 36°50' E 030°36'0 0.0
2017-Aug-24 19:00N 36°50' E 030°36'0 0.0
2017-Aug-24 18:30N 36°50' E 030°36'0 0.0
2017-Aug-24 18:00N 36°50' E 030°36'0 0.0
2017-Aug-24 17:30N 36°50' E 030°36'0 0.0
2017-Aug-24 16:54N 36°50' E 030°36'0 0.0
2017-Aug-24 16:30N 36°50' E 030°36'0 0.0
2017-Aug-24 16:00N 36°50' E 030°36'0 0.0
2017-Aug-24 15:30N 36°50' E 030°36'0 0.0
2017-Aug-24 15:00N 36°50' E 030°36'0 0.0
2017-Aug-24 14:30N 36°50' E 030°36'0 0.0
2017-Aug-24 13:54N 36°50' E 030°36'0 0.0
2017-Aug-24 13:30N 36°50' E 030°36'0 0.0
2017-Aug-24 13:00N 36°50' E 030°36'0 0.0
2017-Aug-24 12:27N 36°50' E 030°36'0 0.0
2017-Aug-24 12:00N 36°50' E 030°36'0 0.0
2017-Aug-24 11:30N 36°50' E 030°36'0 0.0
2017-Aug-24 10:57N 36°50' E 030°36'0 0.0
2017-Aug-24 10:27N 36°50' E 030°36'0 0.0
2017-Aug-24 10:00N 36°50' E 030°36'0 0.0
2017-Aug-24 09:30N 36°50' E 030°36'0 0.0
2017-Aug-24 09:00N 36°50' E 030°36'0 0.0
2017-Aug-24 08:30N 36°50' E 030°36'0 0.0
2017-Aug-24 08:00N 36°50' E 030°36'0 0.0
2017-Aug-24 07:27N 36°50' E 030°36'0 0.0
2017-Aug-24 07:00N 36°50' E 030°36'0 0.0
2017-Aug-24 06:30N 36°50' E 030°36'0 0.0
2017-Aug-24 06:00N 36°50' E 030°36'0 0.0
2017-Aug-24 05:30N 36°50' E 030°36'0 0.0
2017-Aug-24 05:00N 36°50' E 030°36'0 0.0
2017-Aug-24 04:30N 36°50' E 030°36'0 0.0
2017-Aug-24 04:00N 36°50' E 030°36'0 0.0
2017-Aug-24 03:30N 36°50' E 030°36'0 0.0
2017-Aug-24 03:00N 36°50' E 030°36'0 0.0
2017-Aug-24 02:30N 36°50' E 030°36'0 0.0
2017-Aug-24 01:57N 36°50' E 030°36'0 0.0
2017-Aug-24 01:30N 36°50' E 030°36'0 0.0
2017-Aug-24 00:57N 36°50' E 030°36'0 0.0
2017-Aug-24 00:24N 36°50' E 030°36'0 0.0
2017-Aug-24 00:00N 36°50' E 030°36'0 0.0
2017-Aug-23 23:30N 36°50' E 030°36'0 0.0
2017-Aug-23 23:00N 36°50' E 030°36'0 0.0
2017-Aug-23 22:30N 36°50' E 030°36'0 0.0
2017-Aug-23 22:00N 36°50' E 030°36'0 0.0
2017-Aug-23 21:30N 36°50' E 030°36'0 0.0
2017-Aug-23 21:00N 36°50' E 030°36'0 0.0
2017-Aug-23 20:27N 36°50' E 030°36'0 0.0
2017-Aug-23 20:00N 36°50' E 030°36'0 0.0
2017-Aug-23 19:30N 36°50' E 030°36'0 0.0
2017-Aug-23 18:57N 36°50' E 030°36'0 0.0
2017-Aug-23 18:30N 36°50' E 030°36'0 0.0
2017-Aug-23 18:00N 36°50' E 030°36'0 0.0
2017-Aug-23 17:30N 36°50' E 030°36'0 0.0
2017-Aug-23 17:00N 36°50' E 030°36'0 0.0
2017-Aug-23 16:30N 36°50' E 030°36'0 0.0
2017-Aug-23 16:00N 36°50' E 030°36'0 0.0
2017-Aug-23 15:30N 36°50' E 030°36'0 0.0
2017-Aug-23 15:00N 36°50' E 030°36'0 0.0
2017-Aug-23 14:30N 36°50' E 030°36'0 0.0
2017-Aug-23 13:30N 36°50' E 030°36'0 0.0
2017-Aug-23 13:00N 36°50' E 030°36'0 0.0
2017-Aug-23 12:30N 36°50' E 030°36'0 0.0
2017-Aug-23 12:00N 36°50' E 030°36'0 0.0
2017-Aug-23 11:30N 36°50' E 030°36'0 0.0
2017-Aug-23 11:00N 36°50' E 030°36'0 0.0
2017-Aug-23 10:30N 36°50' E 030°36'0 0.0
2017-Aug-23 10:00N 36°50' E 030°36'0 0.0
2017-Aug-23 09:30N 36°50' E 030°36'0 0.0
2017-Aug-23 09:00N 36°50' E 030°36'0 0.0
2017-Aug-23 08:30N 36°50' E 030°36'0 0.0
2017-Aug-23 08:00N 36°50' E 030°36'0 0.0
2017-Aug-23 07:30N 36°50' E 030°36'0 0.0
2017-Aug-23 07:00N 36°50' E 030°36'0 0.0
2017-Aug-23 06:30N 36°50' E 030°36'0 0.0
2017-Aug-23 06:00N 36°50' E 030°36'0 0.0
2017-Aug-23 05:30N 36°50' E 030°36'0 0.0
2017-Aug-23 04:57N 36°50' E 030°36'0 0.0
2017-Aug-23 04:31N 36°50' E 030°36'0 0.0
2017-Aug-23 04:00N 36°50' E 030°36'0 0.0
2017-Aug-23 03:30N 36°50' E 030°36'0 0.0
2017-Aug-23 03:01N 36°50' E 030°36'0 0.0
2017-Aug-23 02:28N 36°50' E 030°36'0 0.0
2017-Aug-23 02:01N 36°50' E 030°36'0 0.0
2017-Aug-23 01:31N 36°50' E 030°36'0 0.0
2017-Aug-23 01:01N 36°50' E 030°36'0 0.0
2017-Aug-23 00:31N 36°50' E 030°36'0 0.0
2017-Aug-23 00:01N 36°50' E 030°36'0 0.0
2017-Aug-22 23:28N 36°50' E 030°36'0 0.0
2017-Aug-22 22:58N 36°50' E 030°36'0 0.0
2017-Aug-22 22:31N 36°50' E 030°36'0 0.0
2017-Aug-22 21:58N 36°50' E 030°36'0 0.0
2017-Aug-22 21:28N 36°50' E 030°36'0 0.0
2017-Aug-22 20:58N 36°50' E 030°36'0 0.0
2017-Aug-22 20:25N 36°50' E 030°36'0 0.0
2017-Aug-22 19:58N 36°50' E 030°36'0 0.0
2017-Aug-22 19:28N 36°50' E 030°36'0 0.0
2017-Aug-22 18:58N 36°50' E 030°36'0 0.0
2017-Aug-22 18:28N 36°50' E 030°36'0 0.0
2017-Aug-22 17:55N 36°50' E 030°36'0 0.0
2017-Aug-22 17:28N 36°50' E 030°36'0 0.0
2017-Aug-22 16:58N 36°50' E 030°36'0 0.0
2017-Aug-22 16:28N 36°50' E 030°36'0 0.0
2017-Aug-22 15:58N 36°50' E 030°36'0 0.0
2017-Aug-22 15:28N 36°50' E 030°36'0 0.0
2017-Aug-22 14:55N 36°50' E 030°36'0 0.0
2017-Aug-22 14:28N 36°50' E 030°36'0 0.0
2017-Aug-22 13:55N 36°50' E 030°36'0 0.0
2017-Aug-22 13:28N 36°50' E 030°36'0 0.0
2017-Aug-22 12:58N 36°50' E 030°36'0 0.0
2017-Aug-22 12:28N 36°50' E 030°36'0 0.0
2017-Aug-22 11:58N 36°50' E 030°36'0 0.0
2017-Aug-22 11:28N 36°50' E 030°36'0 0.0
2017-Aug-22 10:58N 36°50' E 030°36'0 0.0
2017-Aug-22 10:28N 36°50' E 030°36'0 0.0
2017-Aug-22 09:58N 36°50' E 030°36'0 0.0
2017-Aug-22 09:28N 36°50' E 030°36'0 0.0
2017-Aug-22 08:58N 36°50' E 030°36'0 0.0
2017-Aug-22 08:28N 36°50' E 030°36'0 0.0
2017-Aug-22 07:58N 36°50' E 030°36'0 0.0
2017-Aug-22 07:28N 36°50' E 030°36'0 0.0
2017-Aug-22 06:58N 36°50' E 030°36'0 0.0
2017-Aug-22 06:28N 36°50' E 030°36'0 0.0
2017-Aug-22 05:58N 36°50' E 030°36'0 0.0
2017-Aug-22 05:28N 36°50' E 030°36'0 0.0
2017-Aug-22 04:58N 36°50' E 030°36'0 0.0
2017-Aug-22 04:28N 36°50' E 030°36'0 0.0
2017-Aug-22 03:58N 36°50' E 030°36'0 0.0
2017-Aug-22 03:28N 36°50' E 030°36'0 0.0
2017-Aug-22 02:58N 36°50' E 030°36'0 0.0
2017-Aug-22 02:28N 36°50' E 030°36'0 0.0
2017-Aug-22 01:58N 36°50' E 030°36'0 0.0
2017-Aug-22 01:28N 36°50' E 030°36'0 0.0
2017-Aug-22 00:58N 36°50' E 030°36'0 0.0
2017-Aug-22 00:28N 36°50' E 030°36'0 0.0
2017-Aug-21 23:58N 36°50' E 030°36'0 0.0
2017-Aug-21 23:28N 36°50' E 030°36'0 0.0
2017-Aug-21 22:58N 36°50' E 030°36'0 0.0
2017-Aug-21 22:28N 36°50' E 030°36'0 0.0
2017-Aug-21 21:58N 36°50' E 030°36'0 0.0
2017-Aug-21 21:28N 36°50' E 030°36'0 0.0
2017-Aug-21 20:58N 36°50' E 030°36'0 0.0
2017-Aug-21 20:28N 36°50' E 030°36'0 0.0
2017-Aug-21 19:58N 36°50' E 030°36'0 0.0
2017-Aug-21 19:28N 36°50' E 030°36'0 0.0
2017-Aug-21 18:58N 36°50' E 030°36'0 0.0
2017-Aug-21 18:28N 36°50' E 030°36'0 0.0
2017-Aug-21 17:58N 36°50' E 030°36'0 0.0
2017-Aug-21 17:25N 36°50' E 030°36'0 0.0
2017-Aug-21 16:58N 36°50' E 030°36'0 0.0
2017-Aug-21 16:28N 36°50' E 030°36'0 0.0
2017-Aug-21 15:58N 36°50' E 030°36'0 0.0
2017-Aug-21 15:28N 36°50' E 030°36'0 0.0
2017-Aug-21 14:58N 36°50' E 030°36'0 0.0
2017-Aug-21 14:28N 36°50' E 030°36'0 0.0
2017-Aug-21 13:58N 36°50' E 030°36'0 0.0
2017-Aug-21 13:28N 36°50' E 030°36'0 0.0
2017-Aug-21 12:58N 36°50' E 030°36'0 0.0
2017-Aug-21 12:28N 36°50' E 030°36'0 0.0
2017-Aug-21 11:58N 36°50' E 030°36'0 0.0
2017-Aug-21 11:28N 36°50' E 030°36'0 0.0
2017-Aug-21 10:58N 36°50' E 030°36'0 0.0
2017-Aug-21 10:28N 36°50' E 030°36'0 0.0
2017-Aug-21 09:58N 36°50' E 030°36'0 0.0
2017-Aug-21 09:28N 36°50' E 030°36'0 0.0
2017-Aug-21 08:58N 36°50' E 030°36'0 0.0
2017-Aug-21 08:28N 36°50' E 030°36'0 0.0
2017-Aug-21 07:58N 36°50' E 030°36'0 0.0
2017-Aug-21 07:28N 36°50' E 030°36'0 0.0
2017-Aug-21 06:58N 36°50' E 030°36'0 0.0
2017-Aug-21 06:28N 36°50' E 030°36'0 0.0
2017-Aug-21 05:58N 36°50' E 030°36'0 0.0
2017-Aug-21 05:28N 36°50' E 030°36'0 0.0
2017-Aug-21 04:58N 36°50' E 030°36'0 0.0
2017-Aug-21 04:28N 36°50' E 030°36'0 0.0
2017-Aug-21 03:58N 36°50' E 030°36'0 0.0
2017-Aug-21 03:28N 36°50' E 030°36'0 0.0
2017-Aug-21 02:58N 36°50' E 030°36'0 0.0
2017-Aug-21 02:28N 36°50' E 030°36'0 0.0
2017-Aug-21 01:58N 36°50' E 030°36'0 0.0
2017-Aug-21 01:28N 36°50' E 030°36'0 0.0
2017-Aug-21 00:58N 36°50' E 030°36'0 0.0
2017-Aug-21 00:28N 36°50' E 030°36'0 0.0
2017-Aug-20 23:58N 36°50' E 030°36'0 0.0
2017-Aug-20 23:28N 36°50' E 030°36'0 0.0
2017-Aug-20 22:58N 36°50' E 030°36'0 0.0
2017-Aug-20 22:28N 36°50' E 030°36'0 0.0
2017-Aug-20 21:58N 36°50' E 030°36'0 0.0
2017-Aug-20 21:28N 36°50' E 030°36'0 0.0
2017-Aug-20 20:58N 36°50' E 030°36'0 0.0
2017-Aug-20 20:28N 36°50' E 030°36'0 0.0
2017-Aug-20 19:58N 36°50' E 030°36'0 0.0
2017-Aug-20 19:28N 36°50' E 030°36'0 0.0
2017-Aug-20 18:58N 36°50' E 030°36'0 0.0
2017-Aug-20 18:22N 36°50' E 030°36'0 0.0
2017-Aug-20 17:55N 36°50' E 030°36'0 0.0
2017-Aug-20 17:28N 36°50' E 030°36'0 0.0
2017-Aug-20 16:52N 36°50' E 030°36'0 0.0
2017-Aug-20 16:28N 36°50' E 030°36'0 0.0
2017-Aug-20 15:58N 36°50' E 030°36'0 0.0
2017-Aug-20 15:28N 36°50' E 030°36'0 0.0
2017-Aug-20 14:58N 36°50' E 030°36'0 0.0
2017-Aug-20 14:28N 36°50' E 030°36'0 0.0
2017-Aug-20 13:58N 36°50' E 030°36'0 0.0
2017-Aug-20 13:28N 36°50' E 030°36'0 0.0
2017-Aug-20 12:58N 36°50' E 030°36'0 0.0
2017-Aug-20 12:28N 36°50' E 030°36'0 0.0
2017-Aug-20 11:58N 36°50' E 030°36'0 0.0
2017-Aug-20 11:25N 36°50' E 030°36'0 0.0
2017-Aug-20 10:58N 36°50' E 030°36'0 0.0
2017-Aug-20 10:28N 36°50' E 030°36'0 0.0
2017-Aug-20 09:58N 36°50' E 030°36'0 0.0
2017-Aug-20 09:28N 36°50' E 030°36'0 0.0
2017-Aug-20 08:58N 36°50' E 030°36'0 0.0
2017-Aug-20 08:28N 36°50' E 030°36'0 0.0
2017-Aug-20 07:58N 36°50' E 030°36'0 0.0
2017-Aug-20 07:28N 36°50' E 030°36'0 0.0
2017-Aug-20 06:58N 36°50' E 030°36'0 0.0
2017-Aug-20 06:28N 36°50' E 030°36'0 0.0
2017-Aug-20 05:58N 36°50' E 030°36'0 0.0
2017-Aug-20 05:25N 36°50' E 030°36'0 0.0
2017-Aug-20 04:55N 36°50' E 030°36'0 0.0
2017-Aug-20 04:25N 36°50' E 030°36'0 0.0
2017-Aug-20 03:58N 36°50' E 030°36'0 0.0
2017-Aug-20 03:28N 36°50' E 030°36'0 0.0
2017-Aug-20 02:58N 36°50' E 030°36'0 0.0
2017-Aug-20 02:28N 36°50' E 030°36'0 0.0
2017-Aug-20 01:58N 36°50' E 030°36'0 0.0
2017-Aug-20 01:28N 36°50' E 030°36'0 0.0
2017-Aug-20 00:58N 36°50' E 030°36'0 0.0
2017-Aug-20 00:28N 36°50' E 030°36'0 0.0
2017-Aug-19 23:58N 36°50' E 030°36'0 0.0
2017-Aug-19 23:28N 36°50' E 030°36'0 0.0
2017-Aug-19 22:58N 36°50' E 030°36'0 0.0
2017-Aug-19 22:28N 36°50' E 030°36'0 0.0
2017-Aug-19 21:58N 36°50' E 030°36'0 0.0
2017-Aug-19 21:28N 36°50' E 030°36'0 0.0
2017-Aug-19 20:58N 36°50' E 030°36'0 0.0
2017-Aug-19 20:28N 36°50' E 030°36'0 0.0
2017-Aug-19 19:58N 36°50' E 030°36'0 0.0
2017-Aug-19 19:25N 36°50' E 030°36'0 0.0
2017-Aug-19 18:58N 36°50' E 030°36'0 0.0
2017-Aug-19 18:28N 36°50' E 030°36'0 0.0
2017-Aug-19 17:55N 36°50' E 030°36'0 0.0
2017-Aug-19 17:28N 36°50' E 030°36'0 0.0
2017-Aug-19 16:58N 36°50' E 030°36'0 0.0
2017-Aug-19 16:28N 36°50' E 030°36'0 0.0
2017-Aug-19 15:58N 36°50' E 030°36'0 0.0
2017-Aug-19 15:28N 36°50' E 030°36'0 0.0
2017-Aug-19 14:58N 36°50' E 030°36'0 0.0
2017-Aug-19 13:58N 36°50' E 030°36'0 0.0
2017-Aug-19 13:28N 36°50' E 030°36'0 0.0
2017-Aug-19 12:58N 36°50' E 030°36'0 0.0
2017-Aug-19 12:28N 36°50' E 030°36'0 0.0
2017-Aug-19 11:58N 36°50' E 030°36'0 0.0
2017-Aug-19 11:28N 36°50' E 030°36'0 0.0
2017-Aug-19 10:58N 36°50' E 030°36'0 0.0
2017-Aug-19 10:28N 36°50' E 030°36'0 0.0
2017-Aug-19 09:58N 36°50' E 030°36'0 0.0
2017-Aug-19 09:28N 36°50' E 030°36'0 0.0
2017-Aug-19 08:58N 36°50' E 030°36'0 0.0
2017-Aug-19 08:28N 36°50' E 030°36'0 0.0
2017-Aug-19 07:58N 36°50' E 030°36'0 0.0
2017-Aug-19 07:28N 36°50' E 030°36'0 0.0
2017-Aug-19 06:58N 36°50' E 030°36'0 0.0
2017-Aug-19 06:28N 36°50' E 030°36'0 0.0
2017-Aug-19 05:58N 36°50' E 030°36'0 0.0
2017-Aug-19 05:28N 36°50' E 030°36'0 0.0
2017-Aug-19 04:58N 36°50' E 030°36'0 0.0
2017-Aug-19 04:28N 36°50' E 030°36'0 0.0
2017-Aug-19 03:58N 36°50' E 030°36'0 0.0
2017-Aug-19 03:28N 36°50' E 030°36'0 0.0
2017-Aug-19 02:58N 36°50' E 030°36'0 0.0
2017-Aug-19 02:22N 36°50' E 030°36'0 0.0
2017-Aug-19 01:58N 36°50' E 030°36'0 0.0
2017-Aug-19 01:28N 36°50' E 030°36'0 0.0
2017-Aug-19 00:58N 36°50' E 030°36'0 0.0
2017-Aug-19 00:28N 36°50' E 030°36'0 0.0
2017-Aug-18 23:58N 36°50' E 030°36'0 0.0
2017-Aug-18 23:28N 36°50' E 030°36'0 0.0
2017-Aug-18 22:58N 36°50' E 030°36'0 0.0
2017-Aug-18 22:22N 36°50' E 030°36'0 0.0
2017-Aug-18 21:58N 36°50' E 030°36'0 0.0
2017-Aug-18 21:28N 36°50' E 030°36'0 0.0
2017-Aug-18 20:58N 36°50' E 030°36'0 0.0
2017-Aug-18 20:28N 36°50' E 030°36'0 0.0
2017-Aug-18 19:58N 36°50' E 030°36'0 0.0
2017-Aug-18 19:28N 36°50' E 030°36'0 0.0
2017-Aug-18 18:58N 36°50' E 030°36'0 0.0
2017-Aug-18 18:28N 36°50' E 030°36'0 0.0
2017-Aug-18 17:55N 36°50' E 030°36'0 0.0
2017-Aug-18 17:28N 36°50' E 030°36'0 0.0
2017-Aug-18 16:55N 36°50' E 030°36'0 0.0
2017-Aug-18 16:28N 36°50' E 030°36'0 0.0
2017-Aug-18 15:58N 36°50' E 030°36'0 0.0
2017-Aug-18 15:28N 36°50' E 030°36'0 0.0
2017-Aug-18 14:58N 36°50' E 030°36'0 0.0
2017-Aug-18 14:28N 36°50' E 030°36'0 0.0
2017-Aug-18 13:28N 36°50' E 030°36'0 0.0
2017-Aug-18 12:58N 36°50' E 030°36'0 0.0
2017-Aug-18 12:26N 36°50' E 030°36'0 0.0
2017-Aug-18 11:58N 36°50' E 030°36'0 0.0
2017-Aug-18 11:28N 36°50' E 030°36'0 0.0
2017-Aug-18 10:58N 36°50' E 030°36'0 0.0
2017-Aug-18 10:29N 36°50' E 030°36'0 0.0
2017-Aug-18 09:59N 36°50' E 030°36'0 0.0
2017-Aug-18 09:29N 36°50' E 030°36'0 0.0
2017-Aug-18 08:50N 36°50' E 030°36'0 0.0
2017-Aug-18 08:26N 36°50' E 030°36'0 0.0
2017-Aug-18 07:59N 36°50' E 030°36'0 0.0
2017-Aug-18 07:26N 36°50' E 030°36'0 0.0
2017-Aug-18 06:59N 36°50' E 030°36'0 0.0
2017-Aug-18 06:26N 36°50' E 030°36'0 0.0
2017-Aug-18 05:56N 36°50' E 030°36'0 0.0
2017-Aug-18 05:29N 36°50' E 030°36'0 0.0
2017-Aug-18 04:59N 36°50' E 030°36'0 0.0
2017-Aug-18 04:26N 36°50' E 030°36'0 0.0
2017-Aug-18 03:56N 36°50' E 030°36'0 0.0
2017-Aug-18 03:26N 36°50' E 030°36'0 0.0
2017-Aug-18 02:56N 36°50' E 030°36'0 0.0
2017-Aug-18 02:26N 36°50' E 030°36'0 0.0
2017-Aug-18 01:56N 36°50' E 030°36'0 0.0
2017-Aug-18 01:26N 36°50' E 030°36'0 0.0
2017-Aug-18 00:59N 36°50' E 030°36'0 0.0
2017-Aug-18 00:26N 36°50' E 030°36'0 0.0
2017-Aug-17 23:59N 36°50' E 030°36'0 0.0
2017-Aug-17 23:29N 36°50' E 030°36'0 0.0
2017-Aug-17 22:56N 36°50' E 030°36'0 0.0
2017-Aug-17 22:29N 36°50' E 030°36'0 0.0
2017-Aug-17 21:59N 36°50' E 030°36'0 0.0
2017-Aug-17 21:29N 36°50' E 030°36'0 0.0
2017-Aug-17 20:59N 36°50' E 030°36'0 0.0
2017-Aug-17 20:29N 36°50' E 030°36'0 0.0
2017-Aug-17 19:59N 36°50' E 030°36'0 0.0
2017-Aug-17 19:29N 36°50' E 030°36'0 0.0
2017-Aug-17 18:59N 36°50' E 030°36'  
Track history (hours):
 
Tides and Currents Weather Stations Pressure Air Temp Water Temp Dewpoint Dewpoint Depression Visibility Wind Speed Wind Dir Waves Ship Positions

Turkum

Last reported at 2017-Aug-27 16:54 UTC. Time now 2017-Nov-24 15:16 UTC.
Position N 36°50' E 030°36'.
Warning: this ship's position is months out of date.

Length 14 m.

Type: Pleasure craft. MMSI: 271043685.

Date/timePositionNaut miles runAvg speedWind from/ knotsBaromVisibWave heightAir tempDewpointWater temp
2017-Aug-27 16:54N 36°50' E 030°36'0 0.0
2017-Aug-27 16:27N 36°50' E 030°36'0 0.0
2017-Aug-27 16:00N 36°50' E 030°36'0 0.0
2017-Aug-27 15:30N 36°50' E 030°36'1 1.0
2017-Aug-27 15:00N 36°50' E 030°37'1 2.3
2017-Aug-27 14:30N 36°49' E 030°35'0 0.0
2017-Aug-27 14:00N 36°49' E 030°35'0 0.0
2017-Aug-27 13:30N 36°49' E 030°35'0 0.0
2017-Aug-27 13:00N 36°49' E 030°35'0 0.0
2017-Aug-27 12:30N 36°49' E 030°35'0 0.0
2017-Aug-27 12:00N 36°49' E 030°35'0 0.0
2017-Aug-27 11:30N 36°49' E 030°35'0 0.0
2017-Aug-27 11:00N 36°49' E 030°35'2 3.1
2017-Aug-27 10:30N 36°49' E 030°37'3 6.2
2017-Aug-27 10:00N 36°51' E 030°41'4 7.7
2017-Aug-27 09:30N 36°51' E 030°46'1 1.3
2017-Aug-27 09:00N 36°50' E 030°45'3 6.2
2017-Aug-27 08:30N 36°51' E 030°41'3 5.8
2017-Aug-27 08:00N 36°51' E 030°37'1 1.8
2017-Aug-27 07:28N 36°50' E 030°36'0 0.0
2017-Aug-27 06:58N 36°50' E 030°36'0 0.0
2017-Aug-27 06:28N 36°50' E 030°36'0 0.0
2017-Aug-27 05:58N 36°50' E 030°36'0 0.0
2017-Aug-27 05:30N 36°50' E 030°36'0 0.0
2017-Aug-27 05:00N 36°50' E 030°36'0 0.0
2017-Aug-27 04:30N 36°50' E 030°36'0 0.0
2017-Aug-27 04:00N 36°50' E 030°36'0 0.0
2017-Aug-27 03:30N 36°50' E 030°36'0 0.0
2017-Aug-27 03:00N 36°50' E 030°36'0 0.0
2017-Aug-27 02:30N 36°50' E 030°36'0 0.0
2017-Aug-27 02:00N 36°50' E 030°36'0 0.0
2017-Aug-27 01:30N 36°50' E 030°36'0 0.0
2017-Aug-27 01:00N 36°50' E 030°36'0 0.0
2017-Aug-27 00:30N 36°50' E 030°36'0 0.0
2017-Aug-27 00:00N 36°50' E 030°36'0 0.0
2017-Aug-26 23:30N 36°50' E 030°36'0 0.0
2017-Aug-26 23:00N 36°50' E 030°36'0 0.0
2017-Aug-26 22:30N 36°50' E 030°36'0 0.0
2017-Aug-26 22:00N 36°50' E 030°36'0 0.0
2017-Aug-26 21:30N 36°50' E 030°36'0 0.0
2017-Aug-26 21:00N 36°50' E 030°36'0 0.0
2017-Aug-26 20:30N 36°50' E 030°36'0 0.0
2017-Aug-26 20:00N 36°50' E 030°36'0 0.0
2017-Aug-26 19:30N 36°50' E 030°36'0 0.0
2017-Aug-26 19:00N 36°50' E 030°36'0 0.0
2017-Aug-26 18:30N 36°50' E 030°36'0 0.0
2017-Aug-26 18:00N 36°50' E 030°36'0 0.0
2017-Aug-26 17:30N 36°50' E 030°36'0 0.0
2017-Aug-26 17:00N 36°50' E 030°36'0 0.0
2017-Aug-26 16:30N 36°50' E 030°36'0 0.0
2017-Aug-26 16:00N 36°50' E 030°36'0 0.0
2017-Aug-26 15:30N 36°50' E 030°36'0 0.0
2017-Aug-26 15:00N 36°50' E 030°36'0 0.0
2017-Aug-26 14:00N 36°50' E 030°36'0 0.0
2017-Aug-26 13:30N 36°50' E 030°36'0 0.0
2017-Aug-26 12:57N 36°50' E 030°36'0 0.0
2017-Aug-26 12:30N 36°50' E 030°36'0 0.0
2017-Aug-26 12:00N 36°50' E 030°36'0 0.0
2017-Aug-26 11:30N 36°50' E 030°36'0 0.0
2017-Aug-26 11:00N 36°50' E 030°36'0 0.0
2017-Aug-26 10:30N 36°50' E 030°36'0 0.0
2017-Aug-26 10:00N 36°50' E 030°36'0 0.0
2017-Aug-26 09:30N 36°50' E 030°36'0 0.0
2017-Aug-26 08:57N 36°50' E 030°36'0 0.0
2017-Aug-26 08:30N 36°50' E 030°36'0 0.0
2017-Aug-26 07:57N 36°50' E 030°36'0 0.0
2017-Aug-26 07:30N 36°50' E 030°36'0 0.0
2017-Aug-26 07:00N 36°50' E 030°36'0 0.0
2017-Aug-26 06:30N 36°50' E 030°36'0 0.0
2017-Aug-26 06:00N 36°50' E 030°36'0 0.0
2017-Aug-26 05:27N 36°50' E 030°36'0 0.0
2017-Aug-26 04:57N 36°50' E 030°36'0 0.0
2017-Aug-26 04:27N 36°50' E 030°36'0 0.0
2017-Aug-26 03:57N 36°50' E 030°36'0 0.0
2017-Aug-26 03:27N 36°50' E 030°36'0 0.0
2017-Aug-26 03:00N 36°50' E 030°36'0 0.0
2017-Aug-26 02:27N 36°50' E 030°36'0 0.0
2017-Aug-26 02:00N 36°50' E 030°36'0 0.0
2017-Aug-26 01:30N 36°50' E 030°36'0 0.0
2017-Aug-26 01:00N 36°50' E 030°36'0 0.0
2017-Aug-26 00:30N 36°50' E 030°36'0 0.0
2017-Aug-25 23:57N 36°50' E 030°36'0 0.0
2017-Aug-25 23:30N 36°50' E 030°36'0 0.0
2017-Aug-25 23:00N 36°50' E 030°36'0 0.0
2017-Aug-25 22:30N 36°50' E 030°36'0 0.0
2017-Aug-25 22:00N 36°50' E 030°36'0 0.0
2017-Aug-25 21:30N 36°50' E 030°36'0 0.0
2017-Aug-25 21:00N 36°50' E 030°36'0 0.0
2017-Aug-25 20:30N 36°50' E 030°36'0 0.0
2017-Aug-25 20:00N 36°50' E 030°36'0 0.0
2017-Aug-25 19:30N 36°50' E 030°36'0 0.0
2017-Aug-25 19:00N 36°50' E 030°36'0 0.0
2017-Aug-25 18:30N 36°50' E 030°36'0 0.0
2017-Aug-25 17:54N 36°50' E 030°36'0 0.0
2017-Aug-25 17:30N 36°50' E 030°36'0 0.0
2017-Aug-25 17:00N 36°50' E 030°36'0 0.0
2017-Aug-25 16:30N 36°50' E 030°36'0 0.0
2017-Aug-25 16:00N 36°50' E 030°36'0 0.0
2017-Aug-25 15:30N 36°50' E 030°36'0 0.0
2017-Aug-25 14:57N 36°50' E 030°36'0 0.0
2017-Aug-25 14:30N 36°50' E 030°36'0 0.0
2017-Aug-25 13:30N 36°50' E 030°36'0 0.0
2017-Aug-25 12:57N 36°50' E 030°36'0 0.0
2017-Aug-25 12:30N 36°50' E 030°36'0 0.0
2017-Aug-25 12:00N 36°50' E 030°36'0 0.0
2017-Aug-25 11:27N 36°50' E 030°36'0 0.0
2017-Aug-25 11:00N 36°50' E 030°36'0 0.0
2017-Aug-25 10:30N 36°50' E 030°36'0 0.0
2017-Aug-25 10:00N 36°50' E 030°36'0 0.0
2017-Aug-25 09:30N 36°50' E 030°36'0 0.0
2017-Aug-25 09:00N 36°50' E 030°36'0 0.0
2017-Aug-25 08:30N 36°50' E 030°36'0 0.0
2017-Aug-25 08:00N 36°50' E 030°36'0 0.0
2017-Aug-25 07:30N 36°50' E 030°36'0 0.0
2017-Aug-25 07:00N 36°50' E 030°36'0 0.0
2017-Aug-25 06:30N 36°50' E 030°36'0 0.0
2017-Aug-25 06:00N 36°50' E 030°36'0 0.0
2017-Aug-25 05:30N 36°50' E 030°36'0 0.0
2017-Aug-25 05:00N 36°50' E 030°36'0 0.0
2017-Aug-25 04:30N 36°50' E 030°36'0 0.0
2017-Aug-25 03:57N 36°50' E 030°36'0 0.0
2017-Aug-25 03:30N 36°50' E 030°36'0 0.0
2017-Aug-25 02:57N 36°50' E 030°36'0 0.0
2017-Aug-25 02:27N 36°50' E 030°36'0 0.0
2017-Aug-25 01:57N 36°50' E 030°36'0 0.0
2017-Aug-25 01:24N 36°50' E 030°36'0 0.0
2017-Aug-25 01:00N 36°50' E 030°36'0 0.0
2017-Aug-25 00:30N 36°50' E 030°36'0 0.0
2017-Aug-24 23:51N 36°50' E 030°36'0 0.0
2017-Aug-24 23:30N 36°50' E 030°36'0 0.0
2017-Aug-24 23:00N 36°50' E 030°36'0 0.0
2017-Aug-24 22:30N 36°50' E 030°36'0 0.0
2017-Aug-24 21:57N 36°50' E 030°36'0 0.0
2017-Aug-24 21:24N 36°50' E 030°36'0 0.0
2017-Aug-24 21:00N 36°50' E 030°36'0 0.0
2017-Aug-24 20:30N 36°50' E 030°36'0 0.0
2017-Aug-24 20:00N 36°50' E 030°36'0 0.0
2017-Aug-24 19:30N 36°50' E 030°36'0 0.0
2017-Aug-24 19:00N 36°50' E 030°36'0 0.0
2017-Aug-24 18:30N 36°50' E 030°36'0 0.0
2017-Aug-24 18:00N 36°50' E 030°36'0 0.0
2017-Aug-24 17:30N 36°50' E 030°36'0 0.0
2017-Aug-24 16:54N 36°50' E 030°36'0 0.0
2017-Aug-24 16:30N 36°50' E 030°36'0 0.0
2017-Aug-24 16:00N 36°50' E 030°36'0 0.0
2017-Aug-24 15:30N 36°50' E 030°36'0 0.0
2017-Aug-24 15:00N 36°50' E 030°36'0 0.0
2017-Aug-24 14:30N 36°50' E 030°36'0 0.0
2017-Aug-24 13:54N 36°50' E 030°36'0 0.0
2017-Aug-24 13:30N 36°50' E 030°36'0 0.0
2017-Aug-24 13:00N 36°50' E 030°36'0 0.0
2017-Aug-24 12:27N 36°50' E 030°36'0 0.0
2017-Aug-24 12:00N 36°50' E 030°36'0 0.0
2017-Aug-24 11:30N 36°50' E 030°36'0 0.0
2017-Aug-24 10:57N 36°50' E 030°36'0 0.0
2017-Aug-24 10:27N 36°50' E 030°36'0 0.0
2017-Aug-24 10:00N 36°50' E 030°36'0 0.0
2017-Aug-24 09:30N 36°50' E 030°36'0 0.0
2017-Aug-24 09:00N 36°50' E 030°36'0 0.0
2017-Aug-24 08:30N 36°50' E 030°36'0 0.0
2017-Aug-24 08:00N 36°50' E 030°36'0 0.0
2017-Aug-24 07:27N 36°50' E 030°36'0 0.0
2017-Aug-24 07:00N 36°50' E 030°36'0 0.0
2017-Aug-24 06:30N 36°50' E 030°36'0 0.0
2017-Aug-24 06:00N 36°50' E 030°36'0 0.0
2017-Aug-24 05:30N 36°50' E 030°36'0 0.0
2017-Aug-24 05:00N 36°50' E 030°36'0 0.0
2017-Aug-24 04:30N 36°50' E 030°36'0 0.0
2017-Aug-24 04:00N 36°50' E 030°36'0 0.0
2017-Aug-24 03:30N 36°50' E 030°36'0 0.0
2017-Aug-24 03:00N 36°50' E 030°36'0 0.0
2017-Aug-24 02:30N 36°50' E 030°36'0 0.0
2017-Aug-24 01:57N 36°50' E 030°36'0 0.0
2017-Aug-24 01:30N 36°50' E 030°36'0 0.0
2017-Aug-24 00:57N 36°50' E 030°36'0 0.0
2017-Aug-24 00:24N 36°50' E 030°36'0 0.0
2017-Aug-24 00:00N 36°50' E 030°36'0 0.0
2017-Aug-23 23:30N 36°50' E 030°36'0 0.0
2017-Aug-23 23:00N 36°50' E 030°36'0 0.0
2017-Aug-23 22:30N 36°50' E 030°36'0 0.0
2017-Aug-23 22:00N 36°50' E 030°36'0 0.0
2017-Aug-23 21:30N 36°50' E 030°36'0 0.0
2017-Aug-23 21:00N 36°50' E 030°36'0 0.0
2017-Aug-23 20:27N 36°50' E 030°36'0 0.0
2017-Aug-23 20:00N 36°50' E 030°36'0 0.0
2017-Aug-23 19:30N 36°50' E 030°36'0 0.0
2017-Aug-23 18:57N 36°50' E 030°36'0 0.0
2017-Aug-23 18:30N 36°50' E 030°36'0 0.0
2017-Aug-23 18:00N 36°50' E 030°36'0 0.0
2017-Aug-23 17:30N 36°50' E 030°36'0 0.0
2017-Aug-23 17:00N 36°50' E 030°36'0 0.0
2017-Aug-23 16:30N 36°50' E 030°36'0 0.0
2017-Aug-23 16:00N 36°50' E 030°36'0 0.0
2017-Aug-23 15:30N 36°50' E 030°36'0 0.0
2017-Aug-23 15:00N 36°50' E 030°36'0 0.0
2017-Aug-23 14:30N 36°50' E 030°36'0 0.0
2017-Aug-23 13:30N 36°50' E 030°36'0 0.0
2017-Aug-23 13:00N 36°50' E 030°36'0 0.0
2017-Aug-23 12:30N 36°50' E 030°36'0 0.0
2017-Aug-23 12:00N 36°50' E 030°36'0 0.0
2017-Aug-23 11:30N 36°50' E 030°36'0 0.0
2017-Aug-23 11:00N 36°50' E 030°36'0 0.0
2017-Aug-23 10:30N 36°50' E 030°36'0 0.0
2017-Aug-23 10:00N 36°50' E 030°36'0 0.0
2017-Aug-23 09:30N 36°50' E 030°36'0 0.0
2017-Aug-23 09:00N 36°50' E 030°36'0 0.0
2017-Aug-23 08:30N 36°50' E 030°36'0 0.0
2017-Aug-23 08:00N 36°50' E 030°36'0 0.0
2017-Aug-23 07:30N 36°50' E 030°36'0 0.0
2017-Aug-23 07:00N 36°50' E 030°36'0 0.0
2017-Aug-23 06:30N 36°50' E 030°36'0 0.0
2017-Aug-23 06:00N 36°50' E 030°36'0 0.0
2017-Aug-23 05:30N 36°50' E 030°36'0 0.0
2017-Aug-23 04:57N 36°50' E 030°36'0 0.0
2017-Aug-23 04:31N 36°50' E 030°36'0 0.0
2017-Aug-23 04:00N 36°50' E 030°36'0 0.0
2017-Aug-23 03:30N 36°50' E 030°36'0 0.0
2017-Aug-23 03:01N 36°50' E 030°36'0 0.0
2017-Aug-23 02:28N 36°50' E 030°36'0 0.0
2017-Aug-23 02:01N 36°50' E 030°36'0 0.0
2017-Aug-23 01:31N 36°50' E 030°36'0 0.0
2017-Aug-23 01:01N 36°50' E 030°36'0 0.0
2017-Aug-23 00:31N 36°50' E 030°36'0 0.0
2017-Aug-23 00:01N 36°50' E 030°36'0 0.0
2017-Aug-22 23:28N 36°50' E 030°36'0 0.0
2017-Aug-22 22:58N 36°50' E 030°36'0 0.0
2017-Aug-22 22:31N 36°50' E 030°36'0 0.0
2017-Aug-22 21:58N 36°50' E 030°36'0 0.0
2017-Aug-22 21:28N 36°50' E 030°36'0 0.0
2017-Aug-22 20:58N 36°50' E 030°36'0 0.0
2017-Aug-22 20:25N 36°50' E 030°36'0 0.0
2017-Aug-22 19:58N 36°50' E 030°36'0 0.0
2017-Aug-22 19:28N 36°50' E 030°36'0 0.0
2017-Aug-22 18:58N 36°50' E 030°36'0 0.0
2017-Aug-22 18:28N 36°50' E 030°36'0 0.0
2017-Aug-22 17:55N 36°50' E 030°36'0 0.0
2017-Aug-22 17:28N 36°50' E 030°36'0 0.0
2017-Aug-22 16:58N 36°50' E 030°36'0 0.0
2017-Aug-22 16:28N 36°50' E 030°36'0 0.0
2017-Aug-22 15:58N 36°50' E 030°36'0 0.0
2017-Aug-22 15:28N 36°50' E 030°36'0 0.0
2017-Aug-22 14:55N 36°50' E 030°36'0 0.0
2017-Aug-22 14:28N 36°50' E 030°36'0 0.0
2017-Aug-22 13:55N 36°50' E 030°36'0 0.0
2017-Aug-22 13:28N 36°50' E 030°36'0 0.0
2017-Aug-22 12:58N 36°50' E 030°36'0 0.0
2017-Aug-22 12:28N 36°50' E 030°36'0 0.0
2017-Aug-22 11:58N 36°50' E 030°36'0 0.0
2017-Aug-22 11:28N 36°50' E 030°36'0 0.0
2017-Aug-22 10:58N 36°50' E 030°36'0 0.0
2017-Aug-22 10:28N 36°50' E 030°36'0 0.0
2017-Aug-22 09:58N 36°50' E 030°36'0 0.0
2017-Aug-22 09:28N 36°50' E 030°36'0 0.0
2017-Aug-22 08:58N 36°50' E 030°36'0 0.0
2017-Aug-22 08:28N 36°50' E 030°36'0 0.0
2017-Aug-22 07:58N 36°50' E 030°36'0 0.0
2017-Aug-22 07:28N 36°50' E 030°36'0 0.0
2017-Aug-22 06:58N 36°50' E 030°36'0 0.0
2017-Aug-22 06:28N 36°50' E 030°36'0 0.0
2017-Aug-22 05:58N 36°50' E 030°36'0 0.0
2017-Aug-22 05:28N 36°50' E 030°36'0 0.0
2017-Aug-22 04:58N 36°50' E 030°36'0 0.0
2017-Aug-22 04:28N 36°50' E 030°36'0 0.0
2017-Aug-22 03:58N 36°50' E 030°36'0 0.0
2017-Aug-22 03:28N 36°50' E 030°36'0 0.0
2017-Aug-22 02:58N 36°50' E 030°36'0 0.0
2017-Aug-22 02:28N 36°50' E 030°36'0 0.0
2017-Aug-22 01:58N 36°50' E 030°36'0 0.0
2017-Aug-22 01:28N 36°50' E 030°36'0 0.0
2017-Aug-22 00:58N 36°50' E 030°36'0 0.0
2017-Aug-22 00:28N 36°50' E 030°36'0 0.0
2017-Aug-21 23:58N 36°50' E 030°36'0 0.0
2017-Aug-21 23:28N 36°50' E 030°36'0 0.0
2017-Aug-21 22:58N 36°50' E 030°36'0 0.0
2017-Aug-21 22:28N 36°50' E 030°36'0 0.0
2017-Aug-21 21:58N 36°50' E 030°36'0 0.0
2017-Aug-21 21:28N 36°50' E 030°36'0 0.0
2017-Aug-21 20:58N 36°50' E 030°36'0 0.0
2017-Aug-21 20:28N 36°50' E 030°36'0 0.0
2017-Aug-21 19:58N 36°50' E 030°36'0 0.0
2017-Aug-21 19:28N 36°50' E 030°36'0 0.0
2017-Aug-21 18:58N 36°50' E 030°36'0 0.0
2017-Aug-21 18:28N 36°50' E 030°36'0 0.0
2017-Aug-21 17:58N 36°50' E 030°36'0 0.0
2017-Aug-21 17:25N 36°50' E 030°36'0 0.0
2017-Aug-21 16:58N 36°50' E 030°36'0 0.0
2017-Aug-21 16:28N 36°50' E 030°36'0 0.0
2017-Aug-21 15:58N 36°50' E 030°36'0 0.0
2017-Aug-21 15:28N 36°50' E 030°36'0 0.0
2017-Aug-21 14:58N 36°50' E 030°36'0 0.0
2017-Aug-21 14:28N 36°50' E 030°36'0 0.0
2017-Aug-21 13:58N 36°50' E 030°36'0 0.0
2017-Aug-21 13:28N 36°50' E 030°36'0 0.0
2017-Aug-21 12:58N 36°50' E 030°36'0 0.0
2017-Aug-21 12:28N 36°50' E 030°36'0 0.0
2017-Aug-21 11:58N 36°50' E 030°36'0 0.0
2017-Aug-21 11:28N 36°50' E 030°36'0 0.0
2017-Aug-21 10:58N 36°50' E 030°36'0 0.0
2017-Aug-21 10:28N 36°50' E 030°36'0 0.0
2017-Aug-21 09:58N 36°50' E 030°36'0 0.0
2017-Aug-21 09:28N 36°50' E 030°36'0 0.0
2017-Aug-21 08:58N 36°50' E 030°36'0 0.0
2017-Aug-21 08:28N 36°50' E 030°36'0 0.0
2017-Aug-21 07:58N 36°50' E 030°36'0 0.0
2017-Aug-21 07:28N 36°50' E 030°36'0 0.0
2017-Aug-21 06:58N 36°50' E 030°36'0 0.0
2017-Aug-21 06:28N 36°50' E 030°36'0 0.0
2017-Aug-21 05:58N 36°50' E 030°36'0 0.0
2017-Aug-21 05:28N 36°50' E 030°36'0 0.0
2017-Aug-21 04:58N 36°50' E 030°36'0 0.0
2017-Aug-21 04:28N 36°50' E 030°36'0 0.0
2017-Aug-21 03:58N 36°50' E 030°36'0 0.0
2017-Aug-21 03:28N 36°50' E 030°36'0 0.0
2017-Aug-21 02:58N 36°50' E 030°36'0 0.0
2017-Aug-21 02:28N 36°50' E 030°36'0 0.0
2017-Aug-21 01:58N 36°50' E 030°36'0 0.0
2017-Aug-21 01:28N 36°50' E 030°36'0 0.0
2017-Aug-21 00:58N 36°50' E 030°36'0 0.0
2017-Aug-21 00:28N 36°50' E 030°36'0 0.0
2017-Aug-20 23:58N 36°50' E 030°36'0 0.0
2017-Aug-20 23:28N 36°50' E 030°36'0 0.0
2017-Aug-20 22:58N 36°50' E 030°36'0 0.0
2017-Aug-20 22:28N 36°50' E 030°36'0 0.0
2017-Aug-20 21:58N 36°50' E 030°36'0 0.0
2017-Aug-20 21:28N 36°50' E 030°36'0 0.0
2017-Aug-20 20:58N 36°50' E 030°36'0 0.0
2017-Aug-20 20:28N 36°50' E 030°36'0 0.0
2017-Aug-20 19:58N 36°50' E 030°36'0 0.0
2017-Aug-20 19:28N 36°50' E 030°36'0 0.0
2017-Aug-20 18:58N 36°50' E 030°36'0 0.0
2017-Aug-20 18:22N 36°50' E 030°36'0 0.0
2017-Aug-20 17:55N 36°50' E 030°36'0 0.0
2017-Aug-20 17:28N 36°50' E 030°36'0 0.0
2017-Aug-20 16:52N 36°50' E 030°36'0 0.0
2017-Aug-20 16:28N 36°50' E 030°36'0 0.0
2017-Aug-20 15:58N 36°50' E 030°36'0 0.0
2017-Aug-20 15:28N 36°50' E 030°36'0 0.0
2017-Aug-20 14:58N 36°50' E 030°36'0 0.0
2017-Aug-20 14:28N 36°50' E 030°36'0 0.0
2017-Aug-20 13:58N 36°50' E 030°36'0 0.0
2017-Aug-20 13:28N 36°50' E 030°36'0 0.0
2017-Aug-20 12:58N 36°50' E 030°36'0 0.0
2017-Aug-20 12:28N 36°50' E 030°36'0 0.0
2017-Aug-20 11:58N 36°50' E 030°36'0 0.0
2017-Aug-20 11:25N 36°50' E 030°36'0 0.0
2017-Aug-20 10:58N 36°50' E 030°36'0 0.0
2017-Aug-20 10:28N 36°50' E 030°36'0 0.0
2017-Aug-20 09:58N 36°50' E 030°36'0 0.0
2017-Aug-20 09:28N 36°50' E 030°36'0 0.0
2017-Aug-20 08:58N 36°50' E 030°36'0 0.0
2017-Aug-20 08:28N 36°50' E 030°36'0 0.0
2017-Aug-20 07:58N 36°50' E 030°36'0 0.0
2017-Aug-20 07:28N 36°50' E 030°36'0 0.0
2017-Aug-20 06:58N 36°50' E 030°36'0 0.0
2017-Aug-20 06:28N 36°50' E 030°36'0 0.0
2017-Aug-20 05:58N 36°50' E 030°36'0 0.0
2017-Aug-20 05:25N 36°50' E 030°36'0 0.0
2017-Aug-20 04:55N 36°50' E 030°36'0 0.0
2017-Aug-20 04:25N 36°50' E 030°36'0 0.0
2017-Aug-20 03:58N 36°50' E 030°36'0 0.0
2017-Aug-20 03:28N 36°50' E 030°36'0 0.0
2017-Aug-20 02:58N 36°50' E 030°36'0 0.0
2017-Aug-20 02:28N 36°50' E 030°36'0 0.0
2017-Aug-20 01:58N 36°50' E 030°36'0 0.0
2017-Aug-20 01:28N 36°50' E 030°36'0 0.0
2017-Aug-20 00:58N 36°50' E 030°36'0 0.0
2017-Aug-20 00:28N 36°50' E 030°36'0 0.0
2017-Aug-19 23:58N 36°50' E 030°36'0 0.0
2017-Aug-19 23:28N 36°50' E 030°36'0 0.0
2017-Aug-19 22:58N 36°50' E 030°36'0 0.0
2017-Aug-19 22:28N 36°50' E 030°36'0 0.0
2017-Aug-19 21:58N 36°50' E 030°36'0 0.0
2017-Aug-19 21:28N 36°50' E 030°36'0 0.0
2017-Aug-19 20:58N 36°50' E 030°36'0 0.0
2017-Aug-19 20:28N 36°50' E 030°36'0 0.0
2017-Aug-19 19:58N 36°50' E 030°36'0 0.0
2017-Aug-19 19:25N 36°50' E 030°36'0 0.0
2017-Aug-19 18:58N 36°50' E 030°36'0 0.0
2017-Aug-19 18:28N 36°50' E 030°36'0 0.0
2017-Aug-19 17:55N 36°50' E 030°36'0 0.0
2017-Aug-19 17:28N 36°50' E 030°36'0 0.0
2017-Aug-19 16:58N 36°50' E 030°36'0 0.0
2017-Aug-19 16:28N 36°50' E 030°36'0 0.0
2017-Aug-19 15:58N 36°50' E 030°36'0 0.0
2017-Aug-19 15:28N 36°50' E 030°36'0 0.0
2017-Aug-19 14:58N 36°50' E 030°36'0 0.0
2017-Aug-19 13:58N 36°50' E 030°36'0 0.0
2017-Aug-19 13:28N 36°50' E 030°36'0 0.0
2017-Aug-19 12:58N 36°50' E 030°36'0 0.0
2017-Aug-19 12:28N 36°50' E 030°36'0 0.0
2017-Aug-19 11:58N 36°50' E 030°36'0 0.0
2017-Aug-19 11:28N 36°50' E 030°36'0 0.0
2017-Aug-19 10:58N 36°50' E 030°36'0 0.0
2017-Aug-19 10:28N 36°50' E 030°36'0 0.0
2017-Aug-19 09:58N 36°50' E 030°36'0 0.0
2017-Aug-19 09:28N 36°50' E 030°36'0 0.0
2017-Aug-19 08:58N 36°50' E 030°36'0 0.0
2017-Aug-19 08:28N 36°50' E 030°36'0 0.0
2017-Aug-19 07:58N 36°50' E 030°36'0 0.0
2017-Aug-19 07:28N 36°50' E 030°36'0 0.0
2017-Aug-19 06:58N 36°50' E 030°36'0 0.0
2017-Aug-19 06:28N 36°50' E 030°36'0 0.0
2017-Aug-19 05:58N 36°50' E 030°36'0 0.0
2017-Aug-19 05:28N 36°50' E 030°36'0 0.0
2017-Aug-19 04:58N 36°50' E 030°36'0 0.0
2017-Aug-19 04:28N 36°50' E 030°36'0 0.0
2017-Aug-19 03:58N 36°50' E 030°36'0 0.0
2017-Aug-19 03:28N 36°50' E 030°36'0 0.0
2017-Aug-19 02:58N 36°50' E 030°36'0 0.0
2017-Aug-19 02:22N 36°50' E 030°36'0 0.0
2017-Aug-19 01:58N 36°50' E 030°36'0 0.0
2017-Aug-19 01:28N 36°50' E 030°36'0 0.0
2017-Aug-19 00:58N 36°50' E 030°36'0 0.0
2017-Aug-19 00:28N 36°50' E 030°36'0 0.0
2017-Aug-18 23:58N 36°50' E 030°36'0 0.0
2017-Aug-18 23:28N 36°50' E 030°36'0 0.0
2017-Aug-18 22:58N 36°50' E 030°36'0 0.0
2017-Aug-18 22:22N 36°50' E 030°36'0 0.0
2017-Aug-18 21:58N 36°50' E 030°36'0 0.0
2017-Aug-18 21:28N 36°50' E 030°36'0 0.0
2017-Aug-18 20:58N 36°50' E 030°36'0 0.0
2017-Aug-18 20:28N 36°50' E 030°36'0 0.0
2017-Aug-18 19:58N 36°50' E 030°36'0 0.0
2017-Aug-18 19:28N 36°50' E 030°36'0 0.0
2017-Aug-18 18:58N 36°50' E 030°36'0 0.0
2017-Aug-18 18:28N 36°50' E 030°36'0 0.0
2017-Aug-18 17:55N 36°50' E 030°36'0 0.0
2017-Aug-18 17:28N 36°50' E 030°36'0 0.0
2017-Aug-18 16:55N 36°50' E 030°36'0 0.0
2017-Aug-18 16:28N 36°50' E 030°36'0 0.0
2017-Aug-18 15:58N 36°50' E 030°36'0 0.0
2017-Aug-18 15:28N 36°50' E 030°36'0 0.0
2017-Aug-18 14:58N 36°50' E 030°36'0 0.0
2017-Aug-18 14:28N 36°50' E 030°36'0 0.0
2017-Aug-18 13:28N 36°50' E 030°36'0 0.0
2017-Aug-18 12:58N 36°50' E 030°36'0 0.0
2017-Aug-18 12:26N 36°50' E 030°36'0 0.0
2017-Aug-18 11:58N 36°50' E 030°36'0 0.0
2017-Aug-18 11:28N 36°50' E 030°36'0 0.0
2017-Aug-18 10:58N 36°50' E 030°36'0 0.0
2017-Aug-18 10:29N 36°50' E 030°36'0 0.0
2017-Aug-18 09:59N 36°50' E 030°36'0 0.0
2017-Aug-18 09:29N 36°50' E 030°36'0 0.0
2017-Aug-18 08:50N 36°50' E 030°36'0 0.0
2017-Aug-18 08:26N 36°50' E 030°36'0 0.0
2017-Aug-18 07:59N 36°50' E 030°36'0 0.0
2017-Aug-18 07:26N 36°50' E 030°36'0 0.0
2017-Aug-18 06:59N 36°50' E 030°36'0 0.0
2017-Aug-18 06:26N 36°50' E 030°36'0 0.0
2017-Aug-18 05:56N 36°50' E 030°36'0 0.0
2017-Aug-18 05:29N 36°50' E 030°36'0 0.0
2017-Aug-18 04:59N 36°50' E 030°36'0 0.0
2017-Aug-18 04:26N 36°50' E 030°36'0 0.0
2017-Aug-18 03:56N 36°50' E 030°36'0 0.0
2017-Aug-18 03:26N 36°50' E 030°36'0 0.0
2017-Aug-18 02:56N 36°50' E 030°36'0 0.0
2017-Aug-18 02:26N 36°50' E 030°36'0 0.0
2017-Aug-18 01:56N 36°50' E 030°36'0 0.0
2017-Aug-18 01:26N 36°50' E 030°36'0 0.0
2017-Aug-18 00:59N 36°50' E 030°36'0 0.0
2017-Aug-18 00:26N 36°50' E 030°36'0 0.0
2017-Aug-17 23:59N 36°50' E 030°36'0 0.0
2017-Aug-17 23:29N 36°50' E 030°36'0 0.0
2017-Aug-17 22:56N 36°50' E 030°36'0 0.0
2017-Aug-17 22:29N 36°50' E 030°36'0 0.0
2017-Aug-17 21:59N 36°50' E 030°36'0 0.0
2017-Aug-17 21:29N 36°50' E 030°36'0 0.0
2017-Aug-17 20:59N 36°50' E 030°36'0 0.0
2017-Aug-17 20:29N 36°50' E 030°36'0 0.0
2017-Aug-17 19:59N 36°50' E 030°36'0 0.0
2017-Aug-17 19:29N 36°50' E 030°36'0 0.0
2017-Aug-17 18:59N 36°50' E 030°36'  

Dump ship's entire track history